Time;durP1;ratioP1;P1;durP2;ratioP2;P2;SDS_P1;SDS_P2;PMS_P1;PMS_P2;Temp;Humidity;BMP_temperature;BMP_pressure;BME280_temperature;BME280_humidity;BME280_pressure;Samples;Min_cycle;Max_cycle;Signal;HPM_P1;HPM_P2
2022/04/07 00:03:14;;;;;;;55.03;28.00;;;;;;;4.88;83.16;97422.36;4143047;85;21093;-86
2022/04/07 00:09:15;;;;;;;63.73;30.05;;;;;;;5.02;83.69;97425.19;4136282;85;21083;-86
2022/04/07 00:15:16;;;;;;;53.02;28.00;;;;;;;5.08;83.44;97416.90;4141753;85;21020;-87
2022/04/07 00:21:24;;;;;;;65.65;29.20;;;;;;;5.11;83.82;97414.22;4139693;85;21633;-87
2022/04/07 00:27:21;;;;;;;60.17;30.52;;;;;;;5.00;83.51;97406.58;4125110;85;21087;-87
2022/04/07 00:33:22;;;;;;;48.38;25.97;;;;;;;5.01;83.88;97392.45;4127266;85;20944;-87
2022/04/07 00:39:23;;;;;;;51.50;26.45;;;;;;;5.13;84.33;97382.65;4131472;85;21128;-86
2022/04/07 00:45:25;;;;;;;58.28;28.87;;;;;;;5.25;84.44;97392.61;4147841;85;21043;-86
2022/04/07 00:51:27;;;;;;;45.35;24.47;;;;;;;5.25;84.95;97389.90;4156194;84;21027;-86
2022/04/07 00:57:29;;;;;;;38.40;21.23;;;;;;;5.29;85.96;97381.79;4155857;85;20983;-86
2022/04/07 01:03:30;;;;;;;40.52;21.73;;;;;;;5.44;86.07;97371.20;4147978;84;21043;-87
2022/04/07 01:09:32;;;;;;;58.13;28.60;;;;;;;5.64;85.88;97366.46;4150919;84;21034;-87
2022/04/07 01:15:33;;;;;;;51.95;28.00;;;;;;;5.59;85.71;97369.53;4152494;85;21102;-86
2022/04/07 01:21:37;;;;;;;50.98;26.23;;;;;;;5.64;85.98;97362.95;4150424;85;21003;-86
2022/04/07 01:27:38;;;;;;;58.58;26.95;;;;;;;5.70;86.05;97366.89;4144061;85;21320;-87
2022/04/07 01:33:40;;;;;;;51.37;26.77;;;;;;;5.79;86.11;97358.59;4151065;85;21115;-86
2022/04/07 01:39:43;;;;;;;47.98;24.32;;;;;;;5.82;86.04;97353.78;4141758;85;21081;-86
2022/04/07 01:45:45;;;;;;;38.25;21.12;;;;;;;5.80;86.49;97339.77;4140634;85;21181;-85
2022/04/07 01:51:48;;;;;;;39.53;20.70;;;;;;;5.90;86.76;97328.17;4138338;85;21127;-86
2022/04/07 01:57:50;;;;;;;28.67;15.48;;;;;;;5.95;86.69;97326.45;4129951;85;21031;-86
2022/04/07 02:03:51;;;;;;;28.57;16.55;;;;;;;6.07;87.08;97326.67;4132076;85;21059;-87
2022/04/07 02:09:52;;;;;;;43.60;23.83;;;;;;;6.13;87.62;97344.15;4129601;85;21027;-86
2022/04/07 02:15:54;;;;;;;41.50;22.30;;;;;;;6.08;90.10;97350.74;4131161;85;21012;-87
2022/04/07 02:21:55;;;;;;;38.75;19.92;;;;;;;6.01;88.03;97349.35;4133364;85;21571;-85
2022/04/07 02:27:57;;;;;;;37.78;20.45;;;;;;;6.06;88.36;97350.94;4141061;85;21038;-86
2022/04/07 02:33:58;;;;;;;46.00;21.73;;;;;;;6.13;87.78;97356.37;4147938;85;21023;-86
2022/04/07 02:40:00;;;;;;;45.50;25.45;;;;;;;6.19;87.76;97355.62;4150774;84;21063;-85
2022/04/07 02:46:01;;;;;;;36.50;20.90;;;;;;;6.14;87.50;97365.50;4130214;85;22087;-85
2022/04/07 02:52:03;;;;;;;31.73;16.62;;;;;;;6.20;88.21;97363.20;4134932;85;22024;-86
2022/04/07 02:58:04;;;;;;;33.30;18.05;;;;;;;6.40;87.87;97363.03;4132323;85;21038;-85
2022/04/07 03:04:06;;;;;;;41.00;17.92;;;;;;;6.63;88.00;97360.72;4137378;85;21129;-87
2022/04/07 03:10:08;;;;;;;33.78;17.67;;;;;;;6.81;87.58;97358.80;4134020;85;21075;-86
2022/04/07 03:16:09;;;;;;;34.38;18.75;;;;;;;6.91;87.71;97357.20;4135674;85;21110;-85
2022/04/07 03:22:12;;;;;;;26.97;16.57;;;;;;;6.96;87.04;97344.00;4134017;85;21098;-86
2022/04/07 03:28:14;;;;;;;36.55;17.00;;;;;;;6.81;86.70;97351.20;4139810;85;21066;-85
2022/04/07 03:34:15;;;;;;;35.55;17.87;;;;;;;6.63;86.52;97359.93;4129031;85;21630;-86
2022/04/07 03:40:17;;;;;;;32.70;17.17;;;;;;;6.40;86.68;97364.39;4128355;85;21107;-87
2022/04/07 03:46:21;;;;;;;32.93;17.45;;;;;;;6.29;86.92;97358.95;4090255;85;21129;-86
2022/04/07 03:52:22;;;;;;;27.87;15.20;;;;;;;6.21;87.90;97344.36;4085551;86;21528;-86
2022/04/07 03:58:25;;;;;;;37.58;18.73;;;;;;;6.06;87.58;97339.47;4090294;86;21082;-86
2022/04/07 04:04:26;;;;;;;35.38;17.95;;;;;;;6.01;87.40;97339.84;4084327;86;21066;-85
2022/04/07 04:10:27;;;;;;;36.68;18.15;;;;;;;5.94;87.81;97336.34;4098404;86;20999;-86
2022/04/07 04:16:30;;;;;;;39.13;18.85;;;;;;;6.06;88.05;97338.72;4100130;86;21059;-87
2022/04/07 04:22:32;;;;;;;42.27;20.17;;;;;;;6.02;87.99;97335.98;4095035;86;21143;-86
2022/04/07 04:28:33;;;;;;;39.05;19.62;;;;;;;6.03;88.32;97340.81;4084100;86;21107;-86
2022/04/07 04:34:34;;;;;;;44.85;21.62;;;;;;;6.03;88.34;97347.61;4085899;86;21051;-87
2022/04/07 04:40:36;;;;;;;46.65;21.77;;;;;;;6.06;88.34;97363.92;4091768;86;21316;-86
2022/04/07 04:46:37;;;;;;;50.35;24.67;;;;;;;6.11;88.68;97353.26;4088177;86;21086;-86
2022/04/07 04:52:40;;;;;;;51.63;20.50;;;;;;;6.23;88.98;97355.03;4083476;86;21467;-85
2022/04/07 04:58:41;;;;;;;54.50;23.73;;;;;;;6.26;88.93;97359.69;4094803;86;21070;-86
2022/04/07 05:04:43;;;;;;;54.27;25.17;;;;;;;6.24;89.70;97347.09;4072726;86;21118;-87
2022/04/07 05:10:44;;;;;;;51.37;24.12;;;;;;;6.43;89.58;97347.31;4085020;86;22086;-88
2022/04/07 05:16:45;;;;;;;51.92;22.82;;;;;;;6.67;89.64;97345.77;4105983;86;21149;-86
2022/04/07 05:22:47;;;;;;;52.27;24.23;;;;;;;6.92;90.25;97340.49;4082319;86;21713;-86
2022/04/07 05:28:48;;;;;;;47.35;20.97;;;;;;;7.25;90.31;97348.22;4086668;86;21162;-85
2022/04/07 05:34:49;;;;;;;33.35;18.27;;;;;;;7.46;90.18;97351.48;4078224;86;21015;-86
2022/04/07 05:40:51;;;;;;;39.30;18.90;;;;;;;7.71;91.70;97352.17;4082943;86;21102;-87
2022/04/07 05:46:52;;;;;;;26.95;13.90;;;;;;;7.95;90.51;97341.16;4082343;86;21705;-86
2022/04/07 05:52:53;;;;;;;13.75;7.70;;;;;;;8.16;90.35;97332.09;4091785;86;21074;-86
2022/04/07 05:58:56;;;;;;;14.93;8.80;;;;;;;8.58;90.12;97325.02;4106041;85;70950;-86
2022/04/07 06:04:58;;;;;;;9.20;5.60;;;;;;;9.01;89.86;97311.21;4127045;85;21078;-86
2022/04/07 06:10:59;;;;;;;27.25;13.93;;;;;;;9.36;89.09;97302.64;4128539;85;21050;-85
2022/04/07 06:17:04;;;;;;;24.85;15.48;;;;;;;9.71;88.71;97292.50;4143983;85;21190;-86
2022/04/07 06:23:05;;;;;;;7.05;4.62;;;;;;;10.14;89.22;97293.50;4148118;85;21081;-85
2022/04/07 06:29:06;;;;;;;6.42;4.00;;;;;;;10.56;88.13;97296.96;4142080;85;21035;-86
2022/04/07 06:35:10;;;;;;;8.25;4.00;;;;;;;11.30;87.98;97291.57;4115700;85;21824;-86
2022/04/07 06:41:11;;;;;;;9.70;4.85;;;;;;;11.88;87.33;97290.23;4140207;85;21388;-87
2022/04/07 06:47:13;;;;;;;6.37;3.80;;;;;;;12.32;86.08;97283.39;4154478;85;21421;-86
2022/04/07 06:53:17;;;;;;;6.30;3.92;;;;;;;12.76;81.94;97279.98;4167758;84;21058;-84
2022/04/07 06:59:19;;;;;;;5.83;3.00;;;;;;;13.24;80.02;97278.56;4174298;85;21532;-85
2022/04/07 07:05:22;;;;;;;4.28;2.10;;;;;;;13.65;78.78;97277.83;4156953;85;21797;-86
2022/04/07 07:11:24;;;;;;;4.62;1.95;;;;;;;14.16;79.21;97272.57;4167867;85;21039;-86
2022/04/07 07:17:33;;;;;;;2.85;1.40;;;;;;;15.06;78.53;97266.74;4104524;85;21070;-86
2022/04/07 07:23:35;;;;;;;1.80;1.10;;;;;;;15.36;66.47;97272.20;4170143;85;21438;-86
2022/04/07 07:29:36;;;;;;;2.67;1.45;;;;;;;15.42;68.11;97267.68;4153144;85;21602;-87
2022/04/07 07:35:37;;;;;;;2.47;1.42;;;;;;;15.29;69.92;97270.46;4120766;85;21019;-87
2022/04/07 07:41:42;;;;;;;2.02;1.10;;;;;;;15.39;68.56;97272.72;4130686;85;21027;-87
2022/04/07 07:47:47;;;;;;;2.83;1.57;;;;;;;15.47;66.65;97272.63;4133723;85;21207;-87
2022/04/07 07:53:48;;;;;;;3.22;1.27;;;;;;;15.94;66.60;97274.64;4128390;85;22149;-86
2022/04/07 07:59:51;;;;;;;2.95;0.85;;;;;;;16.72;65.81;97275.16;4148819;85;21690;-86
2022/04/07 08:05:53;;;;;;;1.55;0.70;;;;;;;17.18;60.91;97260.96;4151619;85;21094;-85
2022/04/07 08:11:55;;;;;;;1.60;0.90;;;;;;;18.05;62.35;97265.84;4073670;85;21027;-87
2022/04/07 08:17:56;;;;;;;7.08;1.17;;;;;;;18.07;51.91;97280.00;4029636;87;20996;-86
2022/04/07 08:23:58;;;;;;;2.67;1.00;;;;;;;17.69;54.87;97270.83;4040483;87;22538;-86
2022/04/07 08:29:59;;;;;;;2.50;1.20;;;;;;;17.28;51.74;97272.80;4057133;87;20974;-86
2022/04/07 08:36:01;;;;;;;3.33;0.93;;;;;;;16.95;56.54;97269.06;4062543;87;21096;-85
2022/04/07 08:42:37;;;;;;;2.92;1.27;;;;;;;16.56;55.08;97267.90;4062178;87;21619;-86
2022/04/07 08:48:42;;;;;;;2.47;1.17;;;;;;;16.60;54.89;97269.15;4007510;87;21128;-86
2022/04/07 08:54:47;;;;;;;2.72;1.10;;;;;;;16.73;52.77;97255.97;4059122;87;21542;-86
2022/04/07 09:00:49;;;;;;;3.37;1.30;;;;;;;17.24;53.60;97256.35;4069249;87;21023;-86
2022/04/07 09:06:54;;;;;;;2.70;1.12;;;;;;;17.54;53.26;97253.94;4075717;87;21085;-86
2022/04/07 09:13:03;;;;;;;3.10;0.90;;;;;;;17.55;49.51;97250.70;4043369;87;21046;-86
2022/04/07 09:19:06;;;;;;;6.25;3.00;;;;;;;17.93;51.51;97245.41;4075725;87;21359;-85
2022/04/07 09:25:10;;;;;;;6.42;2.00;;;;;;;18.28;51.62;97244.38;4058393;87;21582;-87
2022/04/07 09:31:14;;;;;;;3.52;1.37;;;;;;;18.77;50.38;97225.40;4043002;87;20958;-86
2022/04/07 09:37:22;;;;;;;4.22;1.62;;;;;;;18.44;49.75;97221.27;4011195;87;21612;-84
2022/04/07 09:43:23;;;;;;;3.80;1.25;;;;;;;18.90;49.73;97205.16;4035759;87;21076;-85
2022/04/07 09:49:24;;;;;;;5.87;1.42;;;;;;;19.31;50.33;97197.93;4050740;87;21150;-85
2022/04/07 09:55:43;;;;;;;2.40;1.55;;;;;;;19.06;49.37;97183.16;4068733;87;21039;-86
2022/04/07 10:01:45;;;;;;;6.58;1.10;;;;;;;19.19;49.95;97183.04;4052487;87;21062;-86
2022/04/07 10:07:48;;;;;;;5.08;2.25;;;;;;;19.66;49.56;97183.56;4066412;87;21066;-84
2022/04/07 10:13:50;;;;;;;4.55;1.50;;;;;;;19.49;48.93;97172.17;4062863;87;21006;-86
2022/04/07 10:19:56;;;;;;;4.15;1.55;;;;;;;19.05;48.78;97158.81;4043166;87;21663;-85
2022/04/07 10:26:00;;;;;;;1.67;1.20;;;;;;;18.71;49.19;97152.45;4068599;87;21093;-85
2022/04/07 10:32:17;;;;;;;5.47;1.60;;;;;;;18.81;49.25;97138.66;4024082;87;21692;-86
2022/04/07 10:38:22;;;;;;;;;;;;;;;18.91;49.05;97126.88;4061474;87;21081;-86
2022/04/07 10:44:26;;;;;;;10.13;2.00;;;;;;;18.71;48.37;97116.42;4051042;86;20155;-85
2022/04/07 10:50:29;;;;;;;5.17;1.70;;;;;;;18.54;49.14;97107.00;4058018;87;20975;-86
2022/04/07 10:56:38;;;;;;;3.33;1.55;;;;;;;18.88;48.44;97094.56;4060415;87;22013;-85
2022/04/07 11:02:39;;;;;;;4.12;1.30;;;;;;;19.39;48.37;97072.22;4059346;87;21104;-86
2022/04/07 11:08:42;;;;;;;3.10;1.50;;;;;;;20.06;47.82;97056.73;4075690;87;21093;-85
2022/04/07 11:14:46;;;;;;;4.87;1.27;;;;;;;20.55;47.52;97053.75;4037963;87;21425;-86
2022/04/07 11:21:11;;;;;;;2.58;1.07;;;;;;;20.37;45.02;97050.63;4066339;87;21070;-87
2022/04/07 11:27:35;;;;;;;2.05;1.37;;;;;;;19.81;43.42;97048.30;4067380;87;21066;-86
2022/04/07 11:33:39;;;;;;;2.35;1.40;;;;;;;19.03;43.80;97046.85;4064106;87;21050;-86
2022/04/07 11:39:50;;;;;;;2.35;1.30;;;;;;;18.67;43.73;97039.61;4067875;87;21071;-87
2022/04/07 11:45:56;;;;;;;2.10;1.10;;;;;;;18.55;44.31;97051.73;4065278;86;21078;-85
2022/04/07 11:51:57;;;;;;;2.92;1.05;;;;;;;18.49;41.22;97037.78;4048960;87;21894;-86
2022/04/07 11:58:00;;;;;;;2.80;1.40;;;;;;;18.24;43.39;97013.31;4057682;87;21039;-85
2022/04/07 12:04:05;;;;;;;2.50;1.40;;;;;;;18.32;43.25;97010.95;4069253;87;21087;-86
2022/04/07 12:10:10;;;;;;;3.72;1.57;;;;;;;18.36;43.18;97004.59;4056984;87;21111;-86
2022/04/07 12:16:12;;;;;;;1.70;1.30;;;;;;;18.59;42.42;96999.03;4048333;86;21156;-87
2022/04/07 12:22:15;;;;;;;3.37;1.42;;;;;;;18.94;42.18;96989.47;4054296;87;21071;-85
2022/04/07 12:28:17;;;;;;;2.65;1.45;;;;;;;19.52;43.32;96964.47;4052495;87;21030;-85
2022/04/07 12:34:19;;;;;;;1.42;0.85;;;;;;;20.25;42.50;96955.13;4055922;87;21058;-85
2022/04/07 12:40:27;;;;;;;1.52;1.20;;;;;;;20.46;38.97;96951.05;4059291;87;21542;-85
2022/04/07 12:46:51;;;;;;;2.08;1.00;;;;;;;19.72;41.08;96939.52;4061730;86;21098;-83
2022/04/07 12:52:53;;;;;;;0.95;0.53;;;;;;;19.68;39.88;96932.03;4045955;87;20968;-83
2022/04/07 12:59:03;;;;;;;8.98;1.20;;;;;;;20.07;40.00;96926.97;4081001;87;21145;-83
2022/04/07 13:05:05;;;;;;;1.25;0.90;;;;;;;20.47;40.00;96918.59;4048814;87;21070;-84
2022/04/07 13:11:06;;;;;;;1.25;0.75;;;;;;;20.38;39.22;96903.48;4051183;87;21658;-85
2022/04/07 13:17:09;;;;;;;2.25;1.00;;;;;;;19.88;39.06;96879.29;4050444;87;21630;-84
2022/04/07 13:23:11;;;;;;;1.20;0.60;;;;;;;20.01;38.32;96877.55;4052683;87;21074;-86
2022/04/07 13:29:12;;;;;;;1.25;0.60;;;;;;;19.54;39.34;96857.92;4047369;87;21386;-84
2022/04/07 13:35:14;;;;;;;1.52;0.68;;;;;;;20.07;38.77;96850.59;4054214;87;21565;-85
2022/04/07 13:41:15;;;;;;;3.40;0.90;;;;;;;20.04;39.04;96843.24;4042010;87;21006;-84
2022/04/07 13:47:18;;;;;;;1.87;1.15;;;;;;;19.60;39.22;96831.00;4058949;87;21077;-85
2022/04/07 13:53:19;;;;;;;1.45;0.70;;;;;;;19.50;39.48;96822.66;4052940;87;21074;-84
2022/04/07 13:59:21;;;;;;;1.55;0.82;;;;;;;19.32;40.06;96818.02;4057632;87;21492;-84
2022/04/07 14:05:22;;;;;;;2.72;1.00;;;;;;;19.48;39.07;96809.89;4059999;87;21042;-84
2022/04/07 14:11:24;;;;;;;2.17;1.20;;;;;;;19.84;39.75;96782.20;4055478;87;21089;-84
2022/04/07 14:17:25;;;;;;;1.35;0.88;;;;;;;19.93;38.55;96765.38;4058271;87;21915;-84
2022/04/07 14:23:27;;;;;;;1.50;0.90;;;;;;;20.04;38.94;96735.70;4049971;87;21565;-83
2022/04/07 14:29:44;;;;;;;2.40;0.82;;;;;;;20.08;38.89;96734.84;4048586;87;21655;-84
2022/04/07 14:35:50;;;;;;;1.98;1.00;;;;;;;20.02;38.69;96718.77;4075715;86;21128;-86
2022/04/07 14:41:52;;;;;;;1.10;0.70;;;;;;;19.72;38.18;96704.20;4132543;85;21888;-85
2022/04/07 14:47:54;;;;;;;1.37;0.60;;;;;;;19.63;38.35;96687.09;4116535;85;22111;-86
2022/04/07 14:53:56;;;;;;;2.40;0.90;;;;;;;19.51;37.58;96671.56;4123192;85;21027;-84
2022/04/07 14:59:57;;;;;;;1.62;0.62;;;;;;;19.42;38.49;96659.89;4053318;86;21032;-85
2022/04/07 15:05:58;;;;;;;2.30;0.78;;;;;;;19.44;37.42;96650.44;4072749;87;21097;-84
2022/04/07 15:12:00;;;;;;;1.60;0.80;;;;;;;19.23;37.33;96652.45;4106271;85;21004;-86
2022/04/07 15:18:03;;;;;;;1.70;0.78;;;;;;;19.13;37.93;96646.94;4123027;85;21059;-86
2022/04/07 15:24:05;;;;;;;1.42;0.80;;;;;;;19.05;37.82;96647.22;4110907;85;21627;-85
2022/04/07 15:30:11;;;;;;;2.90;0.80;;;;;;;18.87;37.72;96648.88;4106618;85;21074;-85
2022/04/07 15:36:13;;;;;;;2.35;1.20;;;;;;;18.59;37.10;96662.38;4096097;86;21044;-85
2022/04/07 15:42:14;;;;;;;1.52;0.72;;;;;;;18.41;38.13;96660.49;4130448;85;21035;-85
2022/04/07 15:48:15;;;;;;;4.12;1.20;;;;;;;17.84;38.51;96661.46;4078339;85;21033;-85
2022/04/07 15:54:17;;;;;;;5.00;1.35;;;;;;;17.48;39.01;96663.86;4030157;87;21992;-84
2022/04/07 16:00:18;;;;;;;2.35;0.90;;;;;;;17.14;39.33;96655.52;4020664;87;21075;-85
2022/04/07 16:06:20;;;;;;;2.90;1.10;;;;;;;17.00;39.60;96643.82;4042571;87;21575;-86
2022/04/07 16:12:21;;;;;;;2.17;1.00;;;;;;;16.71;40.48;96653.41;4135119;85;21075;-86
2022/04/07 16:18:23;;;;;;;2.60;1.10;;;;;;;16.57;40.76;96649.34;4177449;85;20988;-85
2022/04/07 16:24:25;;;;;;;2.02;1.05;;;;;;;16.38;41.13;96648.53;4128294;85;21147;-86
2022/04/07 16:30:26;;;;;;;2.27;1.25;;;;;;;16.30;41.51;96641.82;4160369;85;21019;-84
2022/04/07 16:36:28;;;;;;;3.80;1.65;;;;;;;16.20;42.52;96632.05;4154052;85;21110;-84
2022/04/07 16:42:29;;;;;;;3.70;1.72;;;;;;;15.98;43.91;96633.69;4131388;85;21123;-85
2022/04/07 16:48:31;;;;;;;5.33;2.20;;;;;;;15.69;43.66;96623.85;4111641;85;21042;-85
2022/04/07 16:54:32;;;;;;;4.22;2.27;;;;;;;15.42;44.68;96612.29;4029771;85;10000406;-87
2022/04/07 17:00:33;;;;;;;6.40;2.50;;;;;;;15.13;44.81;96604.33;4105951;85;21046;-85
2022/04/07 17:06:36;;;;;;;3.87;2.65;;;;;;;14.95;45.76;96594.72;4108681;85;20984;-84
2022/04/07 17:12:40;;;;;;;6.42;2.37;;;;;;;14.77;46.14;96602.37;4107487;85;21610;-84
2022/04/07 17:18:42;;;;;;;6.20;2.52;;;;;;;14.64;46.25;96607.89;4116407;85;20952;-83
2022/04/07 17:24:43;;;;;;;5.17;3.08;;;;;;;14.51;46.82;96611.39;4117745;85;21022;-83
2022/04/07 17:30:45;;;;;;;7.15;3.90;;;;;;;14.39;46.80;96628.21;4152726;85;21000;-84
2022/04/07 17:36:48;;;;;;;7.17;3.85;;;;;;;14.28;47.20;96629.86;4140683;85;22020;-84
2022/04/07 17:42:49;;;;;;;6.80;3.60;;;;;;;14.28;47.56;96633.98;4123835;85;22022;-84
2022/04/07 17:48:52;;;;;;;7.05;3.02;;;;;;;14.17;47.75;96637.15;4112471;85;21646;-85
2022/04/07 17:54:53;;;;;;;7.75;3.95;;;;;;;14.03;48.49;96632.95;4094329;85;21933;-86
2022/04/07 18:00:54;;;;;;;7.22;3.50;;;;;;;13.94;48.52;96630.78;4149378;84;21083;-85
2022/04/07 18:06:55;;;;;;;6.90;3.15;;;;;;;13.91;48.76;96633.06;4165388;84;21019;-84
2022/04/07 18:12:58;;;;;;;9.00;4.60;;;;;;;13.95;48.44;96629.58;4152055;84;21026;-84
2022/04/07 18:18:59;;;;;;;8.53;4.47;;;;;;;14.01;48.39;96631.89;4182543;84;20987;-85
2022/04/07 18:25:01;;;;;;;7.25;3.58;;;;;;;14.07;48.58;96632.83;4082961;84;21118;-86
2022/04/07 18:31:03;;;;;;;7.92;4.58;;;;;;;14.18;48.34;96624.91;4208102;84;21031;-86
2022/04/07 18:37:05;;;;;;;8.48;4.05;;;;;;;14.19;48.43;96623.08;4140663;84;21018;-84
2022/04/07 18:43:07;;;;;;;11.88;4.62;;;;;;;14.26;48.38;96626.78;4202819;84;21070;-85
2022/04/07 18:49:08;;;;;;;9.15;3.27;;;;;;;14.35;48.26;96615.19;4146127;84;21563;-85
2022/04/07 18:55:11;;;;;;;7.40;3.45;;;;;;;14.59;47.73;96618.13;4148048;85;21008;-85
2022/04/07 19:01:13;;;;;;;6.05;3.17;;;;;;;14.59;47.61;96612.02;4139607;85;21547;-86
2022/04/07 19:07:19;;;;;;;6.05;2.67;;;;;;;14.59;47.68;96605.14;4145943;85;20989;-85
2022/04/07 19:13:20;;;;;;;4.50;2.47;;;;;;;14.52;48.00;96605.42;4132999;85;21011;-85
2022/04/07 19:19:22;;;;;;;6.45;2.95;;;;;;;14.46;47.93;96570.70;4133830;85;21019;-85
2022/04/07 19:25:24;;;;;;;5.60;2.55;;;;;;;14.26;48.56;96584.91;3945354;85;10000417;-86
2022/04/07 19:31:25;;;;;;;3.92;2.25;;;;;;;14.03;49.15;96580.70;4131032;85;20973;-85
2022/04/07 19:37:28;;;;;;;5.62;2.40;;;;;;;13.99;49.32;96571.06;4127072;85;21093;-84
2022/04/07 19:43:29;;;;;;;4.22;1.65;;;;;;;13.91;49.59;96558.81;4122718;85;21087;-85
2022/04/07 19:49:30;;;;;;;4.53;2.20;;;;;;;13.87;49.42;96554.85;4126392;85;20988;-85
2022/04/07 19:55:32;;;;;;;3.08;1.72;;;;;;;13.70;50.17;96543.19;4154060;85;21027;-85
2022/04/07 20:01:33;;;;;;;4.55;1.87;;;;;;;13.68;50.15;96553.86;4130140;85;21626;-85
2022/04/07 20:07:35;;;;;;;6.72;1.82;;;;;;;13.67;50.73;96539.34;4188391;85;21610;-85
2022/04/07 20:13:36;;;;;;;3.77;1.20;;;;;;;13.63;50.41;96526.96;4093434;85;21039;-85
2022/04/07 20:19:38;;;;;;;4.90;1.57;;;;;;;13.65;50.64;96539.05;4134817;85;21528;-85
2022/04/07 20:25:43;;;;;;;3.17;1.25;;;;;;;13.78;50.23;96533.44;4125514;85;21670;-85
2022/04/07 20:31:52;;;;;;;1.53;0.87;;;;;;;13.82;50.25;96518.92;4160976;85;21043;-84
2022/04/07 20:37:50;;;;;;;4.55;1.20;;;;;;;13.86;50.35;96529.93;4107901;85;21113;-84
2022/04/07 20:43:52;;;;;;;3.35;1.10;;;;;;;13.92;49.97;96535.61;4164287;85;21156;-84
2022/04/07 20:49:57;;;;;;;2.75;1.00;;;;;;;13.95;49.80;96540.20;4154599;84;21014;-84
2022/04/07 20:56:00;;;;;;;2.70;0.93;;;;;;;13.93;49.52;96527.50;4194839;84;21881;-85
2022/04/07 21:02:01;;;;;;;1.67;0.80;;;;;;;13.94;49.54;96515.27;4194134;84;21077;-84
2022/04/07 21:08:04;;;;;;;3.20;1.15;;;;;;;13.98;49.58;96521.41;4180402;84;21062;-85
2022/04/07 21:14:07;;;;;;;3.00;0.75;;;;;;;14.07;49.45;96531.81;4167648;84;21092;-85
2022/04/07 21:20:10;;;;;;;2.92;0.80;;;;;;;14.03;49.83;96516.69;4190713;84;21077;-83
2022/04/07 21:26:11;;;;;;;2.20;0.95;;;;;;;13.95;50.20;96497.57;4195062;84;21018;-84
2022/04/07 21:32:12;;;;;;;2.85;0.60;;;;;;;13.76;50.41;96506.41;4168343;84;21933;-85
2022/04/07 21:38:13;;;;;;;1.25;0.60;;;;;;;13.74;50.76;96513.55;4176129;84;21102;-85
2022/04/07 21:44:15;;;;;;;1.15;0.80;;;;;;;13.65;51.13;96513.53;4173128;84;21492;-84
2022/04/07 21:50:17;;;;;;;2.35;0.50;;;;;;;13.65;51.29;96536.91;4147960;84;21000;-84
2022/04/07 21:56:18;;;;;;;1.27;0.60;;;;;;;13.65;51.97;96536.91;4127475;85;21134;-85
2022/04/07 22:02:20;;;;;;;1.72;0.78;;;;;;;13.53;52.40;96541.91;4137435;85;22221;-85
2022/04/07 22:08:21;;;;;;;2.77;0.72;;;;;;;13.51;52.15;96552.58;4150589;85;21031;-85
2022/04/07 22:14:22;;;;;;;2.02;0.62;;;;;;;13.58;52.24;96566.03;4132652;85;21094;-86
2022/04/07 22:20:24;;;;;;;1.82;0.60;;;;;;;13.57;53.33;96552.14;4140202;85;21042;-85
2022/04/07 22:26:25;;;;;;;0.88;0.40;;;;;;;13.50;53.77;96561.42;4130754;85;22034;-84
2022/04/07 22:32:27;;;;;;;1.67;0.62;;;;;;;13.44;54.25;96557.73;4131151;85;21046;-85
2022/04/07 22:38:28;;;;;;;0.68;0.30;;;;;;;13.44;55.89;96567.95;4134494;85;21395;-84
2022/04/07 22:44:30;;;;;;;1.85;0.60;;;;;;;13.28;57.45;96579.20;4127083;85;21043;-85
2022/04/07 22:50:31;;;;;;;0.53;0.50;;;;;;;13.11;58.13;96571.77;4145717;84;21128;-84
2022/04/07 22:56:32;;;;;;;0.35;0.20;;;;;;;13.01;58.45;96585.30;4182696;84;21074;-85
2022/04/07 23:02:37;;;;;;;2.10;0.80;;;;;;;12.92;59.49;96584.44;4170802;84;21347;-85
2022/04/07 23:08:38;;;;;;;2.50;0.85;;;;;;;12.87;60.82;96569.91;4202767;84;21065;-85
2022/04/07 23:14:40;;;;;;;3.98;1.82;;;;;;;12.76;61.32;96570.30;4169398;84;21706;-83
2022/04/07 23:20:41;;;;;;;3.12;1.22;;;;;;;12.64;62.66;96569.13;4194974;84;21019;-85
2022/04/07 23:26:43;;;;;;;6.35;1.32;;;;;;;12.48;64.22;96560.33;4185427;84;21515;-86
2022/04/07 23:32:44;;;;;;;1.37;0.80;;;;;;;12.46;64.69;96547.05;4190139;84;22149;-84
2022/04/07 23:38:45;;;;;;;3.40;1.50;;;;;;;12.36;64.83;96544.66;4164411;84;21054;-84
2022/04/07 23:44:47;;;;;;;1.22;0.60;;;;;;;12.34;65.69;96527.27;4211657;84;21563;-84
2022/04/07 23:50:49;;;;;;;1.55;0.60;;;;;;;12.34;65.91;96532.76;4160836;84;21471;-83
2022/04/07 23:56:50;;;;;;;2.05;0.50;;;;;;;12.22;65.05;96545.92;4117420;85;21035;-84
